sensor_id;sensor_type;location;lat;lon;timestamp;temperature;humidity
6102;DHT22;3081;50.584;7.032;2023-12-20T00:00:21;7.00;99.90
6102;DHT22;3081;50.584;7.032;2023-12-20T00:02:48;7.10;99.90
6102;DHT22;3081;50.584;7.032;2023-12-20T00:05:15;7.10;99.90
6102;DHT22;3081;50.584;7.032;2023-12-20T00:07:41;7.10;99.90
6102;DHT22;3081;50.584;7.032;2023-12-20T00:10:09;7.20;99.90
6102;DHT22;3081;50.584;7.032;2023-12-20T00:12:39;7.20;99.90
6102;DHT22;3081;50.584;7.032;2023-12-20T00:15:07;7.20;99.90
6102;DHT22;3081;50.584;7.032;2023-12-20T00:17:34;7.10;99.90
6102;DHT22;3081;50.584;7.032;2023-12-20T00:20:01;7.20;99.90
6102;DHT22;3081;50.584;7.032;2023-12-20T00:22:28;7.20;99.90
6102;DHT22;3081;50.584;7.032;2023-12-20T00:24:55;7.20;99.90
6102;DHT22;3081;50.584;7.032;2023-12-20T00:27:22;7.20;99.90
6102;DHT22;3081;50.584;7.032;2023-12-20T00:29:51;7.20;99.90
6102;DHT22;3081;50.584;7.032;2023-12-20T00:32:18;7.20;99.90
6102;DHT22;3081;50.584;7.032;2023-12-20T00:34:45;7.20;99.90
6102;DHT22;3081;50.584;7.032;2023-12-20T00:37:12;7.20;99.90
6102;DHT22;3081;50.584;7.032;2023-12-20T00:39:38;7.20;99.90
6102;DHT22;3081;50.584;7.032;2023-12-20T00:42:05;7.20;99.90
6102;DHT22;3081;50.584;7.032;2023-12-20T00:44:32;7.20;99.90
6102;DHT22;3081;50.584;7.032;2023-12-20T00:47:01;7.20;99.90
6102;DHT22;3081;50.584;7.032;2023-12-20T00:49:27;7.20;99.90
6102;DHT22;3081;50.584;7.032;2023-12-20T00:51:54;7.20;99.90
6102;DHT22;3081;50.584;7.032;2023-12-20T00:54:21;7.20;99.90
6102;DHT22;3081;50.584;7.032;2023-12-20T00:56:48;7.20;99.90
6102;DHT22;3081;50.584;7.032;2023-12-20T00:59:16;7.20;99.90
6102;DHT22;3081;50.584;7.032;2023-12-20T01:01:44;7.20;99.90
6102;DHT22;3081;50.584;7.032;2023-12-20T01:04:12;7.20;99.90
6102;DHT22;3081;50.584;7.032;2023-12-20T01:06:39;7.20;99.90
6102;DHT22;3081;50.584;7.032;2023-12-20T01:09:06;7.20;99.90
6102;DHT22;3081;50.584;7.032;2023-12-20T01:11:33;7.20;99.90
6102;DHT22;3081;50.584;7.032;2023-12-20T01:14:00;7.20;99.90
6102;DHT22;3081;50.584;7.032;2023-12-20T01:16:25;7.20;99.90
6102;DHT22;3081;50.584;7.032;2023-12-20T01:18:52;7.20;99.90
6102;DHT22;3081;50.584;7.032;2023-12-20T01:21:21;7.20;99.90
6102;DHT22;3081;50.584;7.032;2023-12-20T01:23:47;7.30;99.90
6102;DHT22;3081;50.584;7.032;2023-12-20T01:26:15;7.30;99.90
6102;DHT22;3081;50.584;7.032;2023-12-20T01:28:42;7.30;99.90
6102;DHT22;3081;50.584;7.032;2023-12-20T01:31:09;7.30;99.90
6102;DHT22;3081;50.584;7.032;2023-12-20T01:33:36;7.30;99.90
6102;DHT22;3081;50.584;7.032;2023-12-20T01:36:03;7.30;99.90
6102;DHT22;3081;50.584;7.032;2023-12-20T01:38:32;7.30;99.90
6102;DHT22;3081;50.584;7.032;2023-12-20T01:40:59;7.30;99.90
6102;DHT22;3081;50.584;7.032;2023-12-20T01:43:26;7.30;99.90
6102;DHT22;3081;50.584;7.032;2023-12-20T01:45:53;7.20;99.90
6102;DHT22;3081;50.584;7.032;2023-12-20T01:48:22;7.20;99.90
6102;DHT22;3081;50.584;7.032;2023-12-20T01:50:49;7.20;99.90
6102;DHT22;3081;50.584;7.032;2023-12-20T01:53:17;7.20;99.90
6102;DHT22;3081;50.584;7.032;2023-12-20T01:55:48;7.30;99.90
6102;DHT22;3081;50.584;7.032;2023-12-20T01:58:17;7.30;99.90
6102;DHT22;3081;50.584;7.032;2023-12-20T02:00:45;7.30;99.90
6102;DHT22;3081;50.584;7.032;2023-12-20T02:03:12;7.30;99.90
6102;DHT22;3081;50.584;7.032;2023-12-20T02:05:39;7.30;99.90
6102;DHT22;3081;50.584;7.032;2023-12-20T02:08:07;7.30;99.90
6102;DHT22;3081;50.584;7.032;2023-12-20T02:10:34;7.30;99.90
6102;DHT22;3081;50.584;7.032;2023-12-20T02:13:03;7.30;99.90
6102;DHT22;3081;50.584;7.032;2023-12-20T02:15:30;7.30;99.90
6102;DHT22;3081;50.584;7.032;2023-12-20T02:17:57;7.20;99.90
6102;DHT22;3081;50.584;7.032;2023-12-20T02:20:24;7.30;99.90
6102;DHT22;3081;50.584;7.032;2023-12-20T02:22:52;7.20;99.90
6102;DHT22;3081;50.584;7.032;2023-12-20T02:25:19;7.20;99.90
6102;DHT22;3081;50.584;7.032;2023-12-20T02:27:46;7.10;99.90
6102;DHT22;3081;50.584;7.032;2023-12-20T02:30:14;6.90;99.90
6102;DHT22;3081;50.584;7.032;2023-12-20T02:32:41;6.70;99.90
6102;DHT22;3081;50.584;7.032;2023-12-20T02:35:08;6.50;99.90
6102;DHT22;3081;50.584;7.032;2023-12-20T02:37:35;6.30;99.90
6102;DHT22;3081;50.584;7.032;2023-12-20T02:40:04;6.30;99.90
6102;DHT22;3081;50.584;7.032;2023-12-20T02:42:31;6.20;99.90
6102;DHT22;3081;50.584;7.032;2023-12-20T02:44:58;6.20;99.90
6102;DHT22;3081;50.584;7.032;2023-12-20T02:47:24;6.10;99.90
6102;DHT22;3081;50.584;7.032;2023-12-20T02:49:51;6.00;99.90
6102;DHT22;3081;50.584;7.032;2023-12-20T02:52:19;6.00;99.90
6102;DHT22;3081;50.584;7.032;2023-12-20T02:54:46;5.90;99.90
6102;DHT22;3081;50.584;7.032;2023-12-20T02:57:14;5.80;99.90
6102;DHT22;3081;50.584;7.032;2023-12-20T02:59:41;5.80;99.90
6102;DHT22;3081;50.584;7.032;2023-12-20T03:02:08;5.70;99.90
6102;DHT22;3081;50.584;7.032;2023-12-20T03:04:35;5.60;99.90
6102;DHT22;3081;50.584;7.032;2023-12-20T03:07:02;5.60;99.90
6102;DHT22;3081;50.584;7.032;2023-12-20T03:09:28;5.60;99.90
6102;DHT22;3081;50.584;7.032;2023-12-20T03:11:55;5.60;99.90
6102;DHT22;3081;50.584;7.032;2023-12-20T03:14:24;5.60;99.90
6102;DHT22;3081;50.584;7.032;2023-12-20T03:16:51;5.60;99.90
6102;DHT22;3081;50.584;7.032;2023-12-20T03:19:18;5.70;99.90
6102;DHT22;3081;50.584;7.032;2023-12-20T03:21:45;5.70;99.90
6102;DHT22;3081;50.584;7.032;2023-12-20T03:24:12;5.70;99.90
6102;DHT22;3081;50.584;7.032;2023-12-20T03:26:39;5.80;99.90
6102;DHT22;3081;50.584;7.032;2023-12-20T03:29:06;5.80;99.90
6102;DHT22;3081;50.584;7.032;2023-12-20T03:31:34;5.80;99.90
6102;DHT22;3081;50.584;7.032;2023-12-20T03:34:01;5.80;99.90
6102;DHT22;3081;50.584;7.032;2023-12-20T03:36:28;5.90;99.90
6102;DHT22;3081;50.584;7.032;2023-12-20T03:38:54;5.90;99.90
6102;DHT22;3081;50.584;7.032;2023-12-20T03:41:21;5.90;99.90
6102;DHT22;3081;50.584;7.032;2023-12-20T03:43:47;5.90;99.90
6102;DHT22;3081;50.584;7.032;2023-12-20T03:46:14;5.90;99.90
6102;DHT22;3081;50.584;7.032;2023-12-20T03:48:43;5.90;99.90
6102;DHT22;3081;50.584;7.032;2023-12-20T03:51:10;6.00;99.90
6102;DHT22;3081;50.584;7.032;2023-12-20T03:53:37;6.00;99.90
6102;DHT22;3081;50.584;7.032;2023-12-20T03:56:06;5.90;99.90
6102;DHT22;3081;50.584;7.032;2023-12-20T03:58:33;6.00;99.90
6102;DHT22;3081;50.584;7.032;2023-12-20T04:01:00;5.90;99.90
6102;DHT22;3081;50.584;7.032;2023-12-20T04:03:28;6.00;99.90
6102;DHT22;3081;50.584;7.032;2023-12-20T04:05:56;6.00;99.90
6102;DHT22;3081;50.584;7.032;2023-12-20T04:08:23;5.90;99.90
6102;DHT22;3081;50.584;7.032;2023-12-20T04:10:50;6.00;99.90
6102;DHT22;3081;50.584;7.032;2023-12-20T04:13:16;6.00;99.90
6102;DHT22;3081;50.584;7.032;2023-12-20T04:15:43;6.00;99.90
6102;DHT22;3081;50.584;7.032;2023-12-20T04:18:10;6.00;99.90
6102;DHT22;3081;50.584;7.032;2023-12-20T04:20:37;6.00;99.90
6102;DHT22;3081;50.584;7.032;2023-12-20T04:23:05;6.00;99.90
6102;DHT22;3081;50.584;7.032;2023-12-20T04:25:32;6.00;99.90
6102;DHT22;3081;50.584;7.032;2023-12-20T04:27:59;6.00;99.90
6102;DHT22;3081;50.584;7.032;2023-12-20T04:30:26;6.00;99.90
6102;DHT22;3081;50.584;7.032;2023-12-20T04:32:53;6.00;99.90
6102;DHT22;3081;50.584;7.032;2023-12-20T04:35:20;6.00;99.90
6102;DHT22;3081;50.584;7.032;2023-12-20T04:37:47;6.10;99.90
6102;DHT22;3081;50.584;7.032;2023-12-20T04:40:16;6.10;99.90
6102;DHT22;3081;50.584;7.032;2023-12-20T04:42:43;6.10;99.90
6102;DHT22;3081;50.584;7.032;2023-12-20T04:45:10;6.10;99.90
6102;DHT22;3081;50.584;7.032;2023-12-20T04:47:38;6.10;99.90
6102;DHT22;3081;50.584;7.032;2023-12-20T04:50:06;6.10;99.90
6102;DHT22;3081;50.584;7.032;2023-12-20T04:52:33;6.10;99.90
6102;DHT22;3081;50.584;7.032;2023-12-20T04:55:00;6.00;99.90
6102;DHT22;3081;50.584;7.032;2023-12-20T04:57:29;6.00;99.90
6102;DHT22;3081;50.584;7.032;2023-12-20T04:59:56;5.90;99.90
6102;DHT22;3081;50.584;7.032;2023-12-20T05:02:23;5.90;99.90
6102;DHT22;3081;50.584;7.032;2023-12-20T05:04:50;5.90;99.90
6102;DHT22;3081;50.584;7.032;2023-12-20T05:07:16;6.00;99.90
6102;DHT22;3081;50.584;7.032;2023-12-20T05:09:43;6.00;99.90
6102;DHT22;3081;50.584;7.032;2023-12-20T05:12:10;6.00;99.90
6102;DHT22;3081;50.584;7.032;2023-12-20T05:14:38;6.10;99.90
6102;DHT22;3081;50.584;7.032;2023-12-20T05:17:05;6.10;99.90
6102;DHT22;3081;50.584;7.032;2023-12-20T05:19:32;6.10;99.90
6102;DHT22;3081;50.584;7.032;2023-12-20T05:22:00;6.10;99.90
6102;DHT22;3081;50.584;7.032;2023-12-20T05:24:27;6.10;99.90
6102;DHT22;3081;50.584;7.032;2023-12-20T05:26:54;6.10;99.90
6102;DHT22;3081;50.584;7.032;2023-12-20T05:29:22;6.10;99.90
6102;DHT22;3081;50.584;7.032;2023-12-20T05:31:50;6.00;99.90
6102;DHT22;3081;50.584;7.032;2023-12-20T05:34:17;6.00;99.90
6102;DHT22;3081;50.584;7.032;2023-12-20T05:36:44;6.00;99.90
6102;DHT22;3081;50.584;7.032;2023-12-20T05:39:11;6.00;99.90
6102;DHT22;3081;50.584;7.032;2023-12-20T05:41:38;5.90;99.90
6102;DHT22;3081;50.584;7.032;2023-12-20T05:44:05;6.00;99.90
6102;DHT22;3081;50.584;7.032;2023-12-20T05:46:32;5.90;99.90
6102;DHT22;3081;50.584;7.032;2023-12-20T05:49:00;5.90;99.90
6102;DHT22;3081;50.584;7.032;2023-12-20T05:51:27;5.90;99.90
6102;DHT22;3081;50.584;7.032;2023-12-20T05:53:54;5.90;99.90
6102;DHT22;3081;50.584;7.032;2023-12-20T05:56:20;5.90;99.90
6102;DHT22;3081;50.584;7.032;2023-12-20T05:58:47;5.90;99.90
6102;DHT22;3081;50.584;7.032;2023-12-20T06:01:14;6.00;99.90
6102;DHT22;3081;50.584;7.032;2023-12-20T06:03:43;6.00;99.90
6102;DHT22;3081;50.584;7.032;2023-12-20T06:06:12;6.00;99.90
6102;DHT22;3081;50.584;7.032;2023-12-20T06:08:41;6.00;99.90
6102;DHT22;3081;50.584;7.032;2023-12-20T06:11:09;6.00;99.90
6102;DHT22;3081;50.584;7.032;2023-12-20T06:13:35;6.00;99.90
6102;DHT22;3081;50.584;7.032;2023-12-20T06:16:05;6.00;99.90
6102;DHT22;3081;50.584;7.032;2023-12-20T06:18:32;5.90;99.90
6102;DHT22;3081;50.584;7.032;2023-12-20T06:20:58;5.90;99.90
6102;DHT22;3081;50.584;7.032;2023-12-20T06:23:27;5.90;99.90
6102;DHT22;3081;50.584;7.032;2023-12-20T06:25:54;5.90;99.90
6102;DHT22;3081;50.584;7.032;2023-12-20T06:28:21;5.90;99.90
6102;DHT22;3081;50.584;7.032;2023-12-20T06:30:47;5.90;99.90
6102;DHT22;3081;50.584;7.032;2023-12-20T06:33:15;5.90;99.90
6102;DHT22;3081;50.584;7.032;2023-12-20T06:35:42;5.90;99.90
6102;DHT22;3081;50.584;7.032;2023-12-20T06:38:09;6.00;99.90
6102;DHT22;3081;50.584;7.032;2023-12-20T06:40:37;6.00;99.90
6102;DHT22;3081;50.584;7.032;2023-12-20T06:43:04;6.10;99.90
6102;DHT22;3081;50.584;7.032;2023-12-20T06:45:32;6.10;99.90
6102;DHT22;3081;50.584;7.032;2023-12-20T06:47:59;6.20;99.90
6102;DHT22;3081;50.584;7.032;2023-12-20T06:50:26;6.00;99.90
6102;DHT22;3081;50.584;7.032;2023-12-20T06:52:53;6.20;99.90
6102;DHT22;3081;50.584;7.032;2023-12-20T06:55:20;6.20;99.90
6102;DHT22;3081;50.584;7.032;2023-12-20T06:57:48;6.20;99.90
6102;DHT22;3081;50.584;7.032;2023-12-20T07:00:16;6.20;99.90
6102;DHT22;3081;50.584;7.032;2023-12-20T07:02:44;6.20;99.90
6102;DHT22;3081;50.584;7.032;2023-12-20T07:05:11;6.20;99.90
6102;DHT22;3081;50.584;7.032;2023-12-20T07:07:38;6.30;99.90
6102;DHT22;3081;50.584;7.032;2023-12-20T07:10:05;6.30;99.90
6102;DHT22;3081;50.584;7.032;2023-12-20T07:12:33;6.30;99.90
6102;DHT22;3081;50.584;7.032;2023-12-20T07:15:01;6.30;99.90
6102;DHT22;3081;50.584;7.032;2023-12-20T07:17:28;6.30;99.90
6102;DHT22;3081;50.584;7.032;2023-12-20T07:19:55;6.30;99.90
6102;DHT22;3081;50.584;7.032;2023-12-20T07:22:22;6.30;99.90
6102;DHT22;3081;50.584;7.032;2023-12-20T07:24:49;6.30;99.90
6102;DHT22;3081;50.584;7.032;2023-12-20T07:27:17;6.20;99.90
6102;DHT22;3081;50.584;7.032;2023-12-20T07:29:44;6.20;99.90
6102;DHT22;3081;50.584;7.032;2023-12-20T07:32:13;6.20;99.90
6102;DHT22;3081;50.584;7.032;2023-12-20T07:34:39;6.20;99.90
6102;DHT22;3081;50.584;7.032;2023-12-20T07:37:06;6.20;99.90
6102;DHT22;3081;50.584;7.032;2023-12-20T07:39:35;6.20;99.90
6102;DHT22;3081;50.584;7.032;2023-12-20T07:42:02;6.20;99.90
6102;DHT22;3081;50.584;7.032;2023-12-20T07:44:29;6.20;99.90
6102;DHT22;3081;50.584;7.032;2023-12-20T07:46:56;6.20;99.90
6102;DHT22;3081;50.584;7.032;2023-12-20T07:49:25;6.20;99.90
6102;DHT22;3081;50.584;7.032;2023-12-20T07:51:52;6.30;99.90
6102;DHT22;3081;50.584;7.032;2023-12-20T07:54:19;6.30;99.90
6102;DHT22;3081;50.584;7.032;2023-12-20T07:56:46;6.30;99.90
6102;DHT22;3081;50.584;7.032;2023-12-20T07:59:13;6.30;99.90
6102;DHT22;3081;50.584;7.032;2023-12-20T08:01:40;6.30;99.90
6102;DHT22;3081;50.584;7.032;2023-12-20T08:04:08;6.40;99.90
6102;DHT22;3081;50.584;7.032;2023-12-20T08:06:36;6.40;99.90
6102;DHT22;3081;50.584;7.032;2023-12-20T08:09:03;6.40;99.90
6102;DHT22;3081;50.584;7.032;2023-12-20T08:11:31;6.40;99.90
6102;DHT22;3081;50.584;7.032;2023-12-20T08:13:57;6.50;99.90
6102;DHT22;3081;50.584;7.032;2023-12-20T08:16:24;6.40;99.90
6102;DHT22;3081;50.584;7.032;2023-12-20T08:18:51;6.50;99.90
6102;DHT22;3081;50.584;7.032;2023-12-20T08:21:18;6.50;99.90
6102;DHT22;3081;50.584;7.032;2023-12-20T08:23:49;6.50;99.90
6102;DHT22;3081;50.584;7.032;2023-12-20T08:26:18;6.50;99.90
6102;DHT22;3081;50.584;7.032;2023-12-20T08:28:46;6.50;99.90
6102;DHT22;3081;50.584;7.032;2023-12-20T08:31:14;6.50;99.90
6102;DHT22;3081;50.584;7.032;2023-12-20T08:33:42;6.50;99.90
6102;DHT22;3081;50.584;7.032;2023-12-20T08:36:09;6.60;99.90
6102;DHT22;3081;50.584;7.032;2023-12-20T08:38:36;6.60;99.90
6102;DHT22;3081;50.584;7.032;2023-12-20T08:41:05;6.60;99.90
6102;DHT22;3081;50.584;7.032;2023-12-20T08:43:32;6.60;99.90
6102;DHT22;3081;50.584;7.032;2023-12-20T08:46:00;6.70;99.90
6102;DHT22;3081;50.584;7.032;2023-12-20T08:48:28;6.70;99.90
6102;DHT22;3081;50.584;7.032;2023-12-20T08:50:55;6.70;99.90
6102;DHT22;3081;50.584;7.032;2023-12-20T08:53:22;6.70;99.90
6102;DHT22;3081;50.584;7.032;2023-12-20T08:55:50;6.70;99.90
6102;DHT22;3081;50.584;7.032;2023-12-20T08:58:18;6.80;99.90
6102;DHT22;3081;50.584;7.032;2023-12-20T09:00:45;6.70;99.90
6102;DHT22;3081;50.584;7.032;2023-12-20T09:03:12;6.70;99.90
6102;DHT22;3081;50.584;7.032;2023-12-20T09:05:39;6.70;99.90
6102;DHT22;3081;50.584;7.032;2023-12-20T09:08:06;6.50;99.90
6102;DHT22;3081;50.584;7.032;2023-12-20T09:10:36;7.40;99.90
6102;DHT22;3081;50.584;7.032;2023-12-20T09:13:04;8.00;99.90
6102;DHT22;3081;50.584;7.032;2023-12-20T09:15:32;8.30;99.90
6102;DHT22;3081;50.584;7.032;2023-12-20T09:17:59;8.60;99.90
6102;DHT22;3081;50.584;7.032;2023-12-20T09:20:26;8.70;99.90
6102;DHT22;3081;50.584;7.032;2023-12-20T09:22:53;8.80;99.90
6102;DHT22;3081;50.584;7.032;2023-12-20T09:25:20;8.90;99.90
6102;DHT22;3081;50.584;7.032;2023-12-20T09:27:48;9.10;99.90
6102;DHT22;3081;50.584;7.032;2023-12-20T09:30:15;9.20;99.90
6102;DHT22;3081;50.584;7.032;2023-12-20T09:32:44;9.10;99.90
6102;DHT22;3081;50.584;7.032;2023-12-20T09:35:12;9.10;99.90
6102;DHT22;3081;50.584;7.032;2023-12-20T09:37:39;9.40;99.90
6102;DHT22;3081;50.584;7.032;2023-12-20T09:40:11;9.60;99.90
6102;DHT22;3081;50.584;7.032;2023-12-20T09:42:48;9.80;99.90
6102;DHT22;3081;50.584;7.032;2023-12-20T09:45:20;9.60;99.90
6102;DHT22;3081;50.584;7.032;2023-12-20T09:47:49;8.90;99.90
6102;DHT22;3081;50.584;7.032;2023-12-20T09:50:18;8.30;99.90
6102;DHT22;3081;50.584;7.032;2023-12-20T09:52:50;8.00;99.90
6102;DHT22;3081;50.584;7.032;2023-12-20T09:55:17;7.90;99.90
6102;DHT22;3081;50.584;7.032;2023-12-20T09:57:45;7.80;99.90
6102;DHT22;3081;50.584;7.032;2023-12-20T10:00:13;7.70;99.90
6102;DHT22;3081;50.584;7.032;2023-12-20T10:02:45;7.60;99.90
6102;DHT22;3081;50.584;7.032;2023-12-20T10:05:17;7.60;99.90
6102;DHT22;3081;50.584;7.032;2023-12-20T10:07:45;7.70;99.90
6102;DHT22;3081;50.584;7.032;2023-12-20T10:10:13;7.80;99.90
6102;DHT22;3081;50.584;7.032;2023-12-20T10:12:40;7.80;99.90
6102;DHT22;3081;50.584;7.032;2023-12-20T10:15:07;7.80;99.90
6102;DHT22;3081;50.584;7.032;2023-12-20T10:17:36;7.80;99.90
6102;DHT22;3081;50.584;7.032;2023-12-20T10:20:04;7.80;99.90
6102;DHT22;3081;50.584;7.032;2023-12-20T10:22:37;7.80;99.90
6102;DHT22;3081;50.584;7.032;2023-12-20T10:25:05;7.70;99.90
6102;DHT22;3081;50.584;7.032;2023-12-20T10:27:32;7.60;99.90
6102;DHT22;3081;50.584;7.032;2023-12-20T10:29:59;7.60;99.90
6102;DHT22;3081;50.584;7.032;2023-12-20T10:32:27;7.60;99.90
6102;DHT22;3081;50.584;7.032;2023-12-20T10:34:55;7.60;99.90
6102;DHT22;3081;50.584;7.032;2023-12-20T10:37:22;7.60;99.90
6102;DHT22;3081;50.584;7.032;2023-12-20T10:39:51;7.60;99.90
6102;DHT22;3081;50.584;7.032;2023-12-20T10:42:21;7.60;99.90
6102;DHT22;3081;50.584;7.032;2023-12-20T10:44:49;7.60;99.90
6102;DHT22;3081;50.584;7.032;2023-12-20T10:47:17;7.60;99.90
6102;DHT22;3081;50.584;7.032;2023-12-20T10:49:45;7.50;99.90
6102;DHT22;3081;50.584;7.032;2023-12-20T10:52:12;7.50;99.90
6102;DHT22;3081;50.584;7.032;2023-12-20T10:54:40;7.50;99.90
6102;DHT22;3081;50.584;7.032;2023-12-20T10:57:08;7.50;99.90
6102;DHT22;3081;50.584;7.032;2023-12-20T10:59:37;7.50;99.90
6102;DHT22;3081;50.584;7.032;2023-12-20T11:02:04;7.50;99.90
6102;DHT22;3081;50.584;7.032;2023-12-20T11:04:38;7.50;99.90
6102;DHT22;3081;50.584;7.032;2023-12-20T11:07:17;7.50;99.90
6102;DHT22;3081;50.584;7.032;2023-12-20T11:09:49;7.50;99.90
6102;DHT22;3081;50.584;7.032;2023-12-20T11:12:25;7.50;99.90
6102;DHT22;3081;50.584;7.032;2023-12-20T11:14:55;7.50;99.90
6102;DHT22;3081;50.584;7.032;2023-12-20T11:17:27;7.50;99.90
6102;DHT22;3081;50.584;7.032;2023-12-20T11:20:08;7.50;99.90
6102;DHT22;3081;50.584;7.032;2023-12-20T11:22:38;7.60;99.90
6102;DHT22;3081;50.584;7.032;2023-12-20T11:25:08;7.60;99.90
6102;DHT22;3081;50.584;7.032;2023-12-20T11:27:41;7.70;99.90
6102;DHT22;3081;50.584;7.032;2023-12-20T11:30:10;7.70;99.90
6102;DHT22;3081;50.584;7.032;2023-12-20T11:32:37;7.70;99.90
6102;DHT22;3081;50.584;7.032;2023-12-20T11:35:18;7.80;99.90
6102;DHT22;3081;50.584;7.032;2023-12-20T11:37:45;7.80;99.90
6102;DHT22;3081;50.584;7.032;2023-12-20T11:40:15;7.90;99.90
6102;DHT22;3081;50.584;7.032;2023-12-20T11:42:44;7.90;99.90
6102;DHT22;3081;50.584;7.032;2023-12-20T11:45:15;7.90;99.90
6102;DHT22;3081;50.584;7.032;2023-12-20T11:47:43;8.00;99.90
6102;DHT22;3081;50.584;7.032;2023-12-20T11:50:12;7.90;99.90
6102;DHT22;3081;50.584;7.032;2023-12-20T11:52:39;7.90;99.90
6102;DHT22;3081;50.584;7.032;2023-12-20T11:55:07;7.80;99.90
6102;DHT22;3081;50.584;7.032;2023-12-20T11:57:34;7.80;99.90
6102;DHT22;3081;50.584;7.032;2023-12-20T12:00:02;7.80;99.90
6102;DHT22;3081;50.584;7.032;2023-12-20T12:02:30;7.70;99.90
6102;DHT22;3081;50.584;7.032;2023-12-20T12:04:57;7.80;99.90
6102;DHT22;3081;50.584;7.032;2023-12-20T12:07:25;7.80;99.90
6102;DHT22;3081;50.584;7.032;2023-12-20T12:09:52;7.80;99.90
6102;DHT22;3081;50.584;7.032;2023-12-20T12:12:19;7.80;99.90
6102;DHT22;3081;50.584;7.032;2023-12-20T12:14:46;7.70;99.90
6102;DHT22;3081;50.584;7.032;2023-12-20T12:17:15;7.70;99.90
6102;DHT22;3081;50.584;7.032;2023-12-20T12:19:43;7.70;99.90
6102;DHT22;3081;50.584;7.032;2023-12-20T12:22:11;7.70;99.90
6102;DHT22;3081;50.584;7.032;2023-12-20T12:24:39;7.70;99.90
6102;DHT22;3081;50.584;7.032;2023-12-20T12:27:06;7.60;99.90
6102;DHT22;3081;50.584;7.032;2023-12-20T12:29:34;7.40;99.90
6102;DHT22;3081;50.584;7.032;2023-12-20T12:32:01;7.40;99.90
6102;DHT22;3081;50.584;7.032;2023-12-20T12:34:32;7.30;99.90
6102;DHT22;3081;50.584;7.032;2023-12-20T12:36:59;7.20;99.90
6102;DHT22;3081;50.584;7.032;2023-12-20T12:39:26;7.10;99.90
6102;DHT22;3081;50.584;7.032;2023-12-20T12:41:55;7.10;99.90
6102;DHT22;3081;50.584;7.032;2023-12-20T12:44:22;7.20;99.90
6102;DHT22;3081;50.584;7.032;2023-12-20T12:46:51;7.20;99.90
6102;DHT22;3081;50.584;7.032;2023-12-20T12:49:19;7.20;99.90
6102;DHT22;3081;50.584;7.032;2023-12-20T12:51:48;7.30;99.90
6102;DHT22;3081;50.584;7.032;2023-12-20T12:54:15;7.30;99.90
6102;DHT22;3081;50.584;7.032;2023-12-20T12:56:43;7.30;99.90
6102;DHT22;3081;50.584;7.032;2023-12-20T12:59:12;7.20;99.90
6102;DHT22;3081;50.584;7.032;2023-12-20T13:01:39;7.20;99.90
6102;DHT22;3081;50.584;7.032;2023-12-20T13:04:06;7.20;99.90
6102;DHT22;3081;50.584;7.032;2023-12-20T13:06:36;7.20;99.90
6102;DHT22;3081;50.584;7.032;2023-12-20T13:09:05;7.20;99.90
6102;DHT22;3081;50.584;7.032;2023-12-20T13:11:32;7.20;99.90
6102;DHT22;3081;50.584;7.032;2023-12-20T13:13:59;7.20;99.90
6102;DHT22;3081;50.584;7.032;2023-12-20T13:16:26;7.20;99.90
6102;DHT22;3081;50.584;7.032;2023-12-20T13:18:53;7.20;99.90
6102;DHT22;3081;50.584;7.032;2023-12-20T13:21:20;7.10;99.90
6102;DHT22;3081;50.584;7.032;2023-12-20T13:23:47;7.10;99.90
6102;DHT22;3081;50.584;7.032;2023-12-20T13:26:15;7.10;99.90
6102;DHT22;3081;50.584;7.032;2023-12-20T13:28:43;7.10;99.90
6102;DHT22;3081;50.584;7.032;2023-12-20T13:31:10;7.10;99.90
6102;DHT22;3081;50.584;7.032;2023-12-20T13:33:37;7.10;99.90
6102;DHT22;3081;50.584;7.032;2023-12-20T13:36:04;7.20;99.90
6102;DHT22;3081;50.584;7.032;2023-12-20T13:38:32;7.30;99.90
6102;DHT22;3081;50.584;7.032;2023-12-20T13:40:58;7.40;99.90
6102;DHT22;3081;50.584;7.032;2023-12-20T13:43:27;7.30;99.90
6102;DHT22;3081;50.584;7.032;2023-12-20T13:45:54;7.30;99.90
6102;DHT22;3081;50.584;7.032;2023-12-20T13:48:21;7.30;99.90
6102;DHT22;3081;50.584;7.032;2023-12-20T13:50:48;7.20;99.90
6102;DHT22;3081;50.584;7.032;2023-12-20T13:53:15;7.20;99.90
6102;DHT22;3081;50.584;7.032;2023-12-20T13:55:42;7.20;99.90
6102;DHT22;3081;50.584;7.032;2023-12-20T13:58:09;7.20;99.90
6102;DHT22;3081;50.584;7.032;2023-12-20T14:00:38;7.20;99.90
6102;DHT22;3081;50.584;7.032;2023-12-20T14:03:06;7.10;99.90
6102;DHT22;3081;50.584;7.032;2023-12-20T14:05:35;7.20;99.90
6102;DHT22;3081;50.584;7.032;2023-12-20T14:08:03;9.80;99.90
6102;DHT22;3081;50.584;7.032;2023-12-20T14:10:30;7.20;99.90
6102;DHT22;3081;50.584;7.032;2023-12-20T14:12:57;7.20;99.90
6102;DHT22;3081;50.584;7.032;2023-12-20T14:15:24;7.00;99.90
6102;DHT22;3081;50.584;7.032;2023-12-20T14:17:53;7.00;99.90
6102;DHT22;3081;50.584;7.032;2023-12-20T14:20:20;6.90;99.90
6102;DHT22;3081;50.584;7.032;2023-12-20T14:22:47;6.80;99.90
6102;DHT22;3081;50.584;7.032;2023-12-20T14:25:14;6.80;99.90
6102;DHT22;3081;50.584;7.032;2023-12-20T14:27:41;6.80;99.90
6102;DHT22;3081;50.584;7.032;2023-12-20T14:30:10;6.80;99.90
6102;DHT22;3081;50.584;7.032;2023-12-20T14:32:37;6.80;99.90
6102;DHT22;3081;50.584;7.032;2023-12-20T14:35:06;6.80;99.90
6102;DHT22;3081;50.584;7.032;2023-12-20T14:37:34;6.90;99.90
6102;DHT22;3081;50.584;7.032;2023-12-20T14:40:01;6.90;99.90
6102;DHT22;3081;50.584;7.032;2023-12-20T14:42:28;6.90;99.90
6102;DHT22;3081;50.584;7.032;2023-12-20T14:44:55;7.00;99.90
6102;DHT22;3081;50.584;7.032;2023-12-20T14:47:22;7.00;99.90
6102;DHT22;3081;50.584;7.032;2023-12-20T14:49:50;7.00;99.90
6102;DHT22;3081;50.584;7.032;2023-12-20T14:52:19;7.00;99.90
6102;DHT22;3081;50.584;7.032;2023-12-20T14:54:46;7.10;99.90
6102;DHT22;3081;50.584;7.032;2023-12-20T14:57:14;7.10;99.90
6102;DHT22;3081;50.584;7.032;2023-12-20T14:59:41;7.10;99.90
6102;DHT22;3081;50.584;7.032;2023-12-20T15:02:09;7.10;99.90
6102;DHT22;3081;50.584;7.032;2023-12-20T15:04:36;7.00;99.90
6102;DHT22;3081;50.584;7.032;2023-12-20T15:07:03;7.10;99.90
6102;DHT22;3081;50.584;7.032;2023-12-20T15:09:32;7.10;99.90
6102;DHT22;3081;50.584;7.032;2023-12-20T15:11:59;7.10;99.90
6102;DHT22;3081;50.584;7.032;2023-12-20T15:14:26;7.10;99.90
6102;DHT22;3081;50.584;7.032;2023-12-20T15:16:54;7.10;99.90
6102;DHT22;3081;50.584;7.032;2023-12-20T15:19:22;7.10;99.90
6102;DHT22;3081;50.584;7.032;2023-12-20T15:21:48;7.20;99.90
6102;DHT22;3081;50.584;7.032;2023-12-20T15:24:16;7.20;99.90
6102;DHT22;3081;50.584;7.032;2023-12-20T15:26:46;7.20;99.90
6102;DHT22;3081;50.584;7.032;2023-12-20T15:29:13;7.20;99.90
6102;DHT22;3081;50.584;7.032;2023-12-20T15:31:44;7.20;99.90
6102;DHT22;3081;50.584;7.032;2023-12-20T15:34:11;7.20;99.90
6102;DHT22;3081;50.584;7.032;2023-12-20T15:36:39;7.20;99.90
6102;DHT22;3081;50.584;7.032;2023-12-20T15:39:06;7.20;99.90
6102;DHT22;3081;50.584;7.032;2023-12-20T15:41:34;7.20;99.90
6102;DHT22;3081;50.584;7.032;2023-12-20T15:44:02;7.20;99.90
6102;DHT22;3081;50.584;7.032;2023-12-20T15:46:29;7.20;99.90
6102;DHT22;3081;50.584;7.032;2023-12-20T15:48:56;7.20;99.90
6102;DHT22;3081;50.584;7.032;2023-12-20T15:51:23;7.30;99.90
6102;DHT22;3081;50.584;7.032;2023-12-20T15:53:50;7.30;99.90
6102;DHT22;3081;50.584;7.032;2023-12-20T15:56:17;7.30;99.90
6102;DHT22;3081;50.584;7.032;2023-12-20T15:58:44;7.30;99.90
6102;DHT22;3081;50.584;7.032;2023-12-20T16:01:14;7.20;99.90
6102;DHT22;3081;50.584;7.032;2023-12-20T16:03:41;7.30;99.90
6102;DHT22;3081;50.584;7.032;2023-12-20T16:06:09;7.30;99.90
6102;DHT22;3081;50.584;7.032;2023-12-20T16:08:36;7.20;99.90
6102;DHT22;3081;50.584;7.032;2023-12-20T16:11:03;7.20;99.90
6102;DHT22;3081;50.584;7.032;2023-12-20T16:13:30;7.20;99.90
6102;DHT22;3081;50.584;7.032;2023-12-20T16:15:57;7.10;99.90
6102;DHT22;3081;50.584;7.032;2023-12-20T16:18:25;7.10;99.90